createdAt,value
2018-10-01T00:00:10.362Z,100233.06
2018-10-01T00:02:39.449Z,100216.61
2018-10-01T00:05:07.987Z,100229.45
2018-10-01T00:07:36.974Z,100233.59
2018-10-01T00:10:05.567Z,100224.73
2018-10-01T00:12:34.375Z,100223.41
2018-10-01T00:15:03.731Z,100226.63
2018-10-01T00:17:32.271Z,100226.63
2018-10-01T00:20:06.173Z,100172.11
2018-10-01T00:22:40.298Z,100230.95
2018-10-01T00:25:09.135Z,100229.35
2018-10-01T00:27:37.735Z,100225.85
2018-10-01T00:30:06.295Z,100221.34
2018-10-01T00:32:35.681Z,100221.62
2018-10-01T00:35:04.236Z,100212.97
2018-10-01T00:37:33.242Z,100208.70
2018-10-01T00:40:01.771Z,100206.82
2018-10-01T00:42:30.477Z,100196.81
2018-10-01T00:44:59.002Z,100202.09
2018-10-01T00:47:27.779Z,100199.91
2018-10-01T00:49:56.308Z,100195.30
2018-10-01T00:52:24.951Z,100193.13
2018-10-01T00:54:53.802Z,100142.05
2018-10-01T00:57:22.457Z,100189.16
2018-10-01T00:59:51.503Z,100193.20
2018-10-01T01:02:20.284Z,100191.98
2018-10-01T01:04:49.306Z,100189.63
2018-10-01T01:07:17.903Z,100186.80
2018-10-01T01:09:46.510Z,100186.45
2018-10-01T01:12:15.052Z,100181.77
2018-10-01T01:14:43.610Z,100186.20
2018-10-01T01:17:12.500Z,100185.56
2018-10-01T01:19:41.122Z,100182.65
2018-10-01T01:22:10.042Z,100090.08
2018-10-01T01:24:38.562Z,100188.25
2018-10-01T01:27:07.363Z,100182.87
2018-10-01T01:29:36.019Z,100189.56
2018-10-01T01:32:04.568Z,100190.12
2018-10-01T01:34:33.130Z,100188.98
2018-10-01T01:37:01.724Z,100185.38
2018-10-01T01:39:30.815Z,100181.78
2018-10-01T01:41:59.359Z,100179.23
2018-10-01T01:44:28.461Z,100174.88
2018-10-01T01:46:57.127Z,100170.14
2018-10-01T01:49:25.890Z,100168.81
2018-10-01T01:51:54.428Z,100162.58
2018-10-01T01:54:22.962Z,100174.05
2018-10-01T01:56:51.522Z,100170.31
2018-10-01T01:59:20.024Z,100166.73
2018-10-01T02:01:48.935Z,100165.59
2018-10-01T02:04:17.432Z,100167.00
2018-10-01T02:06:46.480Z,100156.54
2018-10-01T02:09:15.045Z,100161.45
2018-10-01T02:11:43.767Z,100159.76
2018-10-01T02:14:12.282Z,100166.91
2018-10-01T02:16:40.911Z,100158.22
2018-10-01T02:19:09.590Z,100114.25
2018-10-01T02:21:38.139Z,100150.48
2018-10-01T02:24:07.165Z,100097.05
2018-10-01T02:26:35.767Z,100162.17
2018-10-01T02:29:04.474Z,100157.84
2018-10-01T02:31:33.083Z,100163.13
2018-10-01T02:34:01.657Z,100146.92
2018-10-01T02:36:30.203Z,100143.92
2018-10-01T02:38:58.787Z,100142.98
2018-10-01T02:41:27.662Z,100147.55
2018-10-01T02:43:56.204Z,100143.05
2018-10-01T02:46:25.205Z,100138.50
2018-10-01T02:48:53.713Z,100136.81
2018-10-01T02:51:22.380Z,100137.58
2018-10-01T02:53:56.143Z,100112.80
2018-10-01T02:56:25.074Z,100131.31
2018-10-01T02:58:53.659Z,100134.69
2018-10-01T03:01:22.629Z,100131.47
2018-10-01T03:03:51.189Z,100135.24
2018-10-01T03:06:19.897Z,100128.36
2018-10-01T03:08:48.447Z,100131.83
2018-10-01T03:11:17.009Z,100131.64
2018-10-01T03:13:45.725Z,100131.91
2018-10-01T03:16:14.255Z,100129.18
2018-10-01T03:18:43.002Z,100132.77
2018-10-01T03:21:11.574Z,100128.59
2018-10-01T03:23:40.366Z,100130.49
2018-10-01T03:26:08.948Z,100121.17
2018-10-01T03:28:37.478Z,100116.17
2018-10-01T03:31:06.319Z,100123.72
2018-10-01T03:33:34.861Z,100124.46
2018-10-01T03:36:03.601Z,100119.19
2018-10-01T03:38:32.157Z,100120.91
2018-10-01T03:41:00.774Z,100127.59
2018-10-01T03:43:29.322Z,100129.95
2018-10-01T03:45:57.888Z,100121.63
2018-10-01T03:48:26.500Z,100121.91
2018-10-01T03:50:55.023Z,100121.54
2018-10-01T03:53:24.086Z,100073.86
2018-10-01T03:55:52.607Z,100110.30
2018-10-01T03:58:21.619Z,100111.25
2018-10-01T04:00:50.166Z,100112.75
2018-10-01T04:03:19.251Z,100117.27
2018-10-01T04:05:47.779Z,100115.11
2018-10-01T04:08:16.507Z,100111.25
2018-10-01T04:10:45.017Z,100108.98
2018-10-01T04:13:13.726Z,100102.75
2018-10-01T04:15:42.573Z,100103.24
2018-10-01T04:18:11.084Z,100107.29
2018-10-01T04:20:40.653Z,100052.20
2018-10-01T04:23:09.227Z,100097.84
2018-10-01T04:25:37.966Z,100041.05
2018-10-01T04:28:06.673Z,100098.59
2018-10-01T04:30:35.434Z,100098.20
2018-10-01T04:33:04.012Z,100090.77
2018-10-01T04:35:32.589Z,100103.47
2018-10-01T04:38:01.142Z,100092.46
2018-10-01T04:40:29.747Z,100097.28
2018-10-01T04:42:58.600Z,100095.20
2018-10-01T04:45:27.177Z,100104.56
2018-10-01T04:47:56.062Z,100099.75
2018-10-01T04:50:24.596Z,100109.56
2018-10-01T04:52:53.276Z,100099.38
2018-10-01T04:55:21.862Z,100110.47
2018-10-01T04:57:50.368Z,100110.82
2018-10-01T05:00:19.164Z,100110.05
2018-10-01T05:02:47.667Z,100110.59
2018-10-01T05:05:16.535Z,100116.64
2018-10-01T05:07:45.066Z,100113.83
2018-10-01T05:10:13.750Z,100111.47
2018-10-01T05:12:42.311Z,100114.87
2018-10-01T05:15:10.910Z,100114.79
2018-10-01T05:17:39.579Z,100060.66
2018-10-01T05:20:08.144Z,100115.94
2018-10-01T05:22:37.124Z,100127.44
2018-10-01T05:25:05.885Z,100120.48
2018-10-01T05:27:34.614Z,100124.03
2018-10-01T05:30:03.323Z,100120.25
2018-10-01T05:32:31.928Z,100127.98
2018-10-01T05:35:00.490Z,100125.52
2018-10-01T05:37:29.115Z,100130.79
2018-10-01T05:39:57.862Z,100127.20
2018-10-01T05:42:26.450Z,100122.70
2018-10-01T05:44:55.236Z,100129.12
2018-10-01T05:47:23.779Z,100129.48
2018-10-01T05:49:52.351Z,100127.63
2018-10-01T05:52:21.001Z,100125.75
2018-10-01T05:54:50.429Z,100129.72
2018-10-01T05:57:19.002Z,100129.45
2018-10-01T05:59:47.591Z,100129.00
2018-10-01T06:02:16.475Z,100128.23
2018-10-01T06:04:45.081Z,100125.81
2018-10-01T06:07:13.981Z,100128.09
2018-10-01T06:09:42.588Z,100123.45
2018-10-01T06:12:11.214Z,100124.04
2018-10-01T06:14:40.430Z,100129.23
2018-10-01T06:17:09.568Z,100126.22
2018-10-01T06:19:39.312Z,100125.64
2018-10-01T06:22:08.397Z,100131.31
2018-10-01T06:24:37.490Z,100128.13
2018-10-01T06:27:06.746Z,100128.13
2018-10-01T06:29:36.692Z,100120.42
2018-10-01T06:32:05.703Z,100121.55
2018-10-01T06:34:34.802Z,100102.92
2018-10-01T06:37:03.371Z,100124.95
2018-10-01T06:39:32.145Z,100040.13
2018-10-01T06:42:00.745Z,100128.14
2018-10-01T06:44:29.501Z,100122.48
2018-10-01T06:46:58.298Z,100129.48
2018-10-01T06:49:27.615Z,100120.89
2018-10-01T06:51:57.102Z,100129.75
2018-10-01T06:54:26.178Z,100128.34
2018-10-01T06:56:55.092Z,100126.42
2018-10-01T06:59:23.841Z,100055.91
2018-10-01T07:01:52.893Z,100130.41
2018-10-01T07:04:21.483Z,100140.09
2018-10-01T07:06:50.722Z,100135.47
2018-10-01T07:09:19.322Z,100140.18
2018-10-01T07:11:48.428Z,100136.66
2018-10-01T07:14:16.991Z,100142.41
2018-10-01T07:16:45.855Z,100144.00
2018-10-01T07:19:14.438Z,100139.73
2018-10-01T07:21:43.071Z,100140.66
2018-10-01T07:24:11.688Z,100141.36
2018-10-01T07:26:40.182Z,100138.31
2018-10-01T07:29:09.165Z,100144.66
2018-10-01T07:31:37.712Z,100143.34
2018-10-01T07:34:06.454Z,100144.00
2018-10-01T07:36:35.286Z,100151.10
2018-10-01T07:39:05.337Z,100147.70
2018-10-01T07:41:34.004Z,100107.73
2018-10-01T07:44:02.723Z,100158.27
2018-10-01T07:46:31.276Z,100154.02
2018-10-01T07:49:00.083Z,100160.33
2018-10-01T07:51:29.024Z,100138.81
2018-10-01T07:53:57.546Z,100151.70
2018-10-01T07:56:26.947Z,100148.56
2018-10-01T07:58:56.185Z,100157.23
2018-10-01T08:01:24.838Z,100154.81
2018-10-01T08:03:53.359Z,100157.98
2018-10-01T08:06:22.022Z,100157.41
2018-10-01T08:08:50.660Z,100162.64
2018-10-01T08:11:20.199Z,100172.45
2018-10-01T08:13:48.757Z,100170.00
2018-10-01T08:16:17.358Z,100163.95
2018-10-01T08:18:46.224Z,100167.38
2018-10-01T08:21:14.843Z,100171.16
2018-10-01T08:23:43.688Z,100171.34
2018-10-01T08:26:12.337Z,100179.46
2018-10-01T08:28:40.901Z,100165.96
2018-10-01T08:31:09.626Z,100174.17
2018-10-01T08:33:38.172Z,100171.16
2018-10-01T08:36:07.262Z,100170.75
2018-10-01T08:38:35.903Z,100174.90
2018-10-01T08:41:05.392Z,100170.34
2018-10-01T08:43:34.934Z,100171.47
2018-10-01T08:46:04.791Z,100169.75
2018-10-01T08:48:35.774Z,100175.44
2018-10-01T08:51:10.909Z,100171.47
2018-10-01T08:53:57.523Z,100118.34
2018-10-01T08:56:26.281Z,100178.55
2018-10-01T08:58:55.607Z,100183.08
2018-10-01T09:01:24.311Z,100182.29
2018-10-01T09:03:52.910Z,100173.63
2018-10-01T09:06:21.566Z,100204.41
2018-10-01T09:08:50.162Z,100205.01
2018-10-01T09:11:18.728Z,100195.11
2018-10-01T09:13:47.394Z,100092.88
2018-10-01T09:16:15.970Z,100187.20
2018-10-01T09:18:44.750Z,100182.11
2018-10-01T09:21:13.349Z,100182.85
2018-10-01T09:23:42.117Z,100168.80
2018-10-01T09:26:10.764Z,100176.64
2018-10-01T09:28:39.346Z,100169.09
2018-10-01T09:31:08.092Z,100164.24
2018-10-01T09:33:36.606Z,100164.71
2018-10-01T09:36:05.502Z,100161.65
2018-10-01T09:38:34.234Z,100167.64
2018-10-01T09:41:03.294Z,100154.64
2018-10-01T09:43:31.835Z,100157.59
2018-10-01T09:46:00.601Z,100153.42
2018-10-01T09:48:29.158Z,100156.91
2018-10-01T09:50:58.009Z,100158.66
2018-10-01T09:53:26.811Z,100142.13
2018-10-01T09:55:55.383Z,100153.42
2018-10-01T09:58:24.242Z,100156.39
2018-10-01T10:00:58.181Z,100159.14
2018-10-01T10:03:26.716Z,100158.17
2018-10-01T10:05:55.344Z,100151.99
2018-10-01T10:08:24.140Z,100129.00
2018-10-01T10:10:53.227Z,100161.00
2018-10-01T10:13:22.157Z,100122.80
2018-10-01T10:15:50.694Z,100165.16
2018-10-01T10:18:19.425Z,100166.98
2018-10-01T10:20:48.540Z,100164.94
2018-10-01T10:23:17.121Z,100163.78
2018-10-01T10:25:45.618Z,100164.09
2018-10-01T10:28:14.395Z,100160.98
2018-10-01T10:30:42.944Z,100160.91
2018-10-01T10:33:11.422Z,100159.64
2018-10-01T10:35:40.196Z,100171.08
2018-10-01T10:38:08.852Z,100161.14
2018-10-01T10:40:37.513Z,100146.41
2018-10-01T10:43:06.198Z,100166.31
2018-10-01T10:45:34.927Z,100171.31
2018-10-01T10:48:03.831Z,100163.19
2018-10-01T10:50:32.408Z,100163.73
2018-10-01T10:53:01.540Z,100165.84
2018-10-01T10:55:30.115Z,100162.64
2018-10-01T10:57:58.986Z,100174.77
2018-10-01T11:00:27.762Z,100171.15
2018-10-01T11:02:56.483Z,100166.02
2018-10-01T11:05:25.050Z,100161.97
2018-10-01T11:07:53.660Z,100160.95
2018-10-01T11:10:22.342Z,100146.77
2018-10-01T11:12:51.105Z,100165.91
2018-10-01T11:15:20.017Z,100172.31
2018-10-01T11:17:48.614Z,100173.53
2018-10-01T11:20:17.142Z,100184.86
2018-10-01T11:22:45.710Z,100183.56
2018-10-01T11:25:14.446Z,100183.20
2018-10-01T11:27:43.000Z,100148.77
2018-10-01T11:30:11.587Z,100190.23
2018-10-01T11:32:40.308Z,100192.50
2018-10-01T11:35:08.984Z,100199.02
2018-10-01T11:37:37.899Z,100162.69
2018-10-01T11:40:06.658Z,100202.35
2018-10-01T11:42:35.403Z,100199.27
2018-10-01T11:45:04.148Z,100207.80
2018-10-01T11:47:32.690Z,100200.81
2018-10-01T11:50:01.411Z,100207.06
2018-10-01T11:52:29.942Z,100216.69
2018-10-01T11:54:58.727Z,100162.02
2018-10-01T11:57:27.330Z,100205.70
2018-10-01T11:59:56.420Z,100205.02
2018-10-01T12:02:25.086Z,100199.83
2018-10-01T12:04:53.752Z,100209.28
2018-10-01T12:07:22.418Z,100212.50
2018-10-01T12:09:51.149Z,100218.56
2018-10-01T12:12:19.775Z,100174.52
2018-10-01T12:14:48.560Z,100216.94
2018-10-01T12:17:17.676Z,100202.88
2018-10-01T12:19:46.480Z,100213.66
2018-10-01T12:22:15.793Z,100112.45
2018-10-01T12:24:44.248Z,100208.15
2018-10-01T12:27:13.662Z,100195.47
2018-10-01T12:29:42.450Z,100201.12
2018-10-01T12:32:11.083Z,100203.88
2018-10-01T12:34:39.798Z,100075.95
2018-10-01T12:37:08.409Z,100208.90
2018-10-01T12:39:37.446Z,100206.88
2018-10-01T12:42:06.099Z,100199.94
2018-10-01T12:44:35.150Z,100100.20
2018-10-01T12:47:03.796Z,100203.65
2018-10-01T12:49:32.525Z,100196.91
2018-10-01T12:52:01.347Z,100201.00
2018-10-01T12:54:30.043Z,100207.57
2018-10-01T12:56:58.673Z,100216.34
2018-10-01T12:59:27.348Z,100228.28
2018-10-01T13:01:56.249Z,100227.04
2018-10-01T13:04:24.796Z,100227.00
2018-10-01T13:06:53.533Z,100228.96
2018-10-01T13:09:22.126Z,100235.39
2018-10-01T13:11:50.880Z,100234.38
2018-10-01T13:14:19.771Z,100237.08
2018-10-01T13:16:48.601Z,100231.25
2018-10-01T13:19:17.448Z,100233.20
2018-10-01T13:21:46.059Z,100239.73
2018-10-01T13:24:15.027Z,100176.33
2018-10-01T13:26:44.157Z,100248.89
2018-10-01T13:29:13.019Z,100197.50
2018-10-01T13:31:41.612Z,100239.00
2018-10-01T13:34:10.403Z,100250.03
2018-10-01T13:36:39.545Z,100247.78
2018-10-01T13:39:10.267Z,100245.62
2018-10-01T13:41:39.589Z,100242.34
2018-10-01T13:44:08.380Z,100243.22
2018-10-01T13:46:37.165Z,100243.60
2018-10-01T13:49:06.032Z,100242.11
2018-10-01T13:51:35.352Z,100222.28
2018-10-01T13:54:04.042Z,100231.43
2018-10-01T13:56:32.827Z,100230.06
2018-10-01T13:59:01.400Z,100235.92
2018-10-01T14:01:30.333Z,100228.25
2018-10-01T14:03:58.967Z,100221.25
2018-10-01T14:06:27.920Z,100226.66
2018-10-01T14:08:59.021Z,100221.84
2018-10-01T14:11:27.849Z,100223.33
2018-10-01T14:13:56.579Z,100221.45
2018-10-01T14:16:25.054Z,100228.81
2018-10-01T14:18:53.614Z,100225.41
2018-10-01T14:21:22.178Z,100229.18
2018-10-01T14:23:50.959Z,100221.47
2018-10-01T14:26:19.486Z,100226.94
2018-10-01T14:28:48.885Z,100232.03
2018-10-01T14:31:17.526Z,100239.41
2018-10-01T14:33:46.465Z,100237.52
2018-10-01T14:36:15.118Z,100236.00
2018-10-01T14:38:43.719Z,100233.52
2018-10-01T14:41:13.729Z,100230.97
2018-10-01T14:43:42.269Z,100225.02
2018-10-01T14:46:11.834Z,100229.94
2018-10-01T14:48:40.727Z,100225.41
2018-10-01T14:51:09.282Z,100232.63
2018-10-01T14:53:37.785Z,100233.55
2018-10-01T14:56:06.690Z,100234.50
2018-10-01T14:58:35.219Z,100227.13
2018-10-01T15:01:04.118Z,100236.58
2018-10-01T15:03:32.685Z,100244.15
2018-10-01T15:06:01.423Z,100244.52
2018-10-01T15:08:30.053Z,100242.06
2018-10-01T15:10:58.789Z,100242.06
2018-10-01T15:13:27.286Z,100245.47
2018-10-01T15:15:55.883Z,100243.78
2018-10-01T15:18:24.731Z,100252.84
2018-10-01T15:20:53.326Z,100252.30
2018-10-01T15:23:22.273Z,100249.48
2018-10-01T15:25:50.856Z,100255.50
2018-10-01T15:28:20.372Z,100256.09
2018-10-01T15:30:49.923Z,100262.30
2018-10-01T15:33:18.743Z,100261.17
2018-10-01T15:35:47.305Z,100258.45
2018-10-01T15:38:16.200Z,100261.37
2018-10-01T15:40:45.018Z,100261.95
2018-10-01T15:43:14.260Z,100270.80
2018-10-01T15:45:43.763Z,100225.11
2018-10-01T15:48:12.434Z,100259.30
2018-10-01T15:50:41.219Z,100263.72
2018-10-01T15:53:09.839Z,100272.14
2018-10-01T15:55:38.672Z,100271.28
2018-10-01T15:58:07.331Z,100276.02
2018-10-01T16:00:36.108Z,100273.92
2018-10-01T16:03:05.168Z,100279.94
2018-10-01T16:05:33.737Z,100281.94
2018-10-01T16:08:02.352Z,100282.86
2018-10-01T16:10:31.291Z,100290.97
2018-10-01T16:13:00.290Z,100287.19
2018-10-01T16:15:28.823Z,100287.64
2018-10-01T16:17:57.529Z,100289.23
2018-10-01T16:20:26.146Z,100289.99
2018-10-01T16:22:54.756Z,100289.76
2018-10-01T16:25:23.429Z,100293.25
2018-10-01T16:27:52.022Z,100300.80
2018-10-01T16:30:20.809Z,100278.09
2018-10-01T16:32:49.306Z,100291.09
2018-10-01T16:35:18.179Z,100284.07
2018-10-01T16:37:46.671Z,100285.62
2018-10-01T16:40:15.347Z,100290.55
2018-10-01T16:42:43.879Z,100287.59
2018-10-01T16:45:12.422Z,100289.70
2018-10-01T16:47:41.135Z,100287.81
2018-10-01T16:50:09.647Z,100289.46
2018-10-01T16:52:38.800Z,100293.16
2018-10-01T16:55:07.345Z,100298.52
2018-10-01T16:57:36.444Z,100306.37
2018-10-01T17:00:05.327Z,100308.66
2018-10-01T17:02:34.234Z,100312.22
2018-10-01T17:05:02.772Z,100316.72
2018-10-01T17:07:32.270Z,100322.84
2018-10-01T17:10:00.875Z,100319.84
2018-10-01T17:12:29.543Z,100323.31
2018-10-01T17:14:58.267Z,100324.10
2018-10-01T17:17:26.856Z,100327.16
2018-10-01T17:19:56.366Z,100332.16
2018-10-01T17:22:25.005Z,100331.22
2018-10-01T17:24:53.810Z,100332.00
2018-10-01T17:27:22.456Z,100334.78
2018-10-01T17:29:51.030Z,100335.08
2018-10-01T17:32:19.732Z,100337.06
2018-10-01T17:34:48.266Z,100335.52
2018-10-01T17:37:17.584Z,100336.19
2018-10-01T17:39:46.866Z,100336.48
2018-10-01T17:42:16.379Z,100339.02
2018-10-01T17:44:45.239Z,100347.27
2018-10-01T17:47:14.344Z,100341.43
2018-10-01T17:49:43.211Z,100344.38
2018-10-01T17:52:12.145Z,100348.19
2018-10-01T17:54:40.782Z,100354.52
2018-10-01T17:57:09.405Z,100345.59
2018-10-01T17:59:37.959Z,100354.93
2018-10-01T18:02:06.783Z,100349.95
2018-10-01T18:04:36.358Z,100348.71
2018-10-01T18:07:04.868Z,100346.53
2018-10-01T18:09:33.565Z,100356.14
2018-10-01T18:12:02.128Z,100356.28
2018-10-01T18:14:30.977Z,100358.91
2018-10-01T18:16:59.662Z,100361.53
2018-10-01T18:19:28.353Z,100362.56
2018-10-01T18:21:58.111Z,100352.40
2018-10-01T18:24:26.806Z,100358.45
2018-10-01T18:26:55.469Z,100368.23
2018-10-01T18:29:24.090Z,100368.39
2018-10-01T18:31:53.450Z,100367.22
2018-10-01T18:34:21.996Z,100364.86
2018-10-01T18:36:50.722Z,100361.95
2018-10-01T18:39:21.981Z,100364.84
2018-10-01T18:41:50.910Z,100293.41
2018-10-01T18:44:19.443Z,100362.09
2018-10-01T18:46:48.488Z,100364.98
2018-10-01T18:49:17.868Z,100365.63
2018-10-01T18:51:48.358Z,100371.07
2018-10-01T18:54:17.304Z,100373.38
2018-10-01T18:56:46.391Z,100371.30
2018-10-01T18:59:14.927Z,100373.51
2018-10-01T19:01:43.605Z,100374.05
2018-10-01T19:04:12.203Z,100382.05
2018-10-01T19:06:41.096Z,100374.44
2018-10-01T19:09:10.869Z,100300.50
2018-10-01T19:11:39.940Z,100378.33
2018-10-01T19:14:09.117Z,100376.37
2018-10-01T19:16:37.763Z,100378.70
2018-10-01T19:19:07.650Z,100378.06
2018-10-01T19:21:36.269Z,100377.38
2018-10-01T19:24:05.192Z,100386.30
2018-10-01T19:26:33.805Z,100381.56
2018-10-01T19:29:02.651Z,100376.91
2018-10-01T19:31:31.352Z,100382.61
2018-10-01T19:34:00.005Z,100380.48
2018-10-01T19:36:28.600Z,100379.72
2018-10-01T19:38:57.303Z,100378.98
2018-10-01T19:41:25.826Z,100382.11
2018-10-01T19:43:54.343Z,100373.91
2018-10-01T19:46:23.566Z,100375.73
2018-10-01T19:48:52.147Z,100375.84
2018-10-01T19:51:20.992Z,100373.29
2018-10-01T19:53:50.278Z,100366.50
2018-10-01T19:56:19.007Z,100373.05
2018-10-01T19:58:47.942Z,100373.55
2018-10-01T20:01:16.708Z,100371.05
2018-10-01T20:03:45.476Z,100362.53
2018-10-01T20:06:14.954Z,100365.27
2018-10-01T20:08:43.776Z,100299.72
2018-10-01T20:11:12.395Z,100354.34
2018-10-01T20:13:41.334Z,100355.88
2018-10-01T20:16:09.892Z,100353.44
2018-10-01T20:18:38.574Z,100361.35
2018-10-01T20:21:07.104Z,100363.20
2018-10-01T20:23:36.101Z,100363.76
2018-10-01T20:26:04.839Z,100330.39
2018-10-01T20:28:33.770Z,100365.73
2018-10-01T20:31:02.276Z,100365.85
2018-10-01T20:33:30.956Z,100364.66
2018-10-01T20:35:59.832Z,100366.95
2018-10-01T20:38:28.276Z,100370.13
2018-10-01T20:40:57.042Z,100368.95
2018-10-01T20:43:25.624Z,100371.69
2018-10-01T20:45:54.369Z,100374.41
2018-10-01T20:48:23.145Z,100374.47
2018-10-01T20:50:51.602Z,100374.10
2018-10-01T20:53:20.550Z,100368.92
2018-10-01T20:55:49.255Z,100375.94
2018-10-01T20:58:17.959Z,100370.39
2018-10-01T21:00:46.557Z,100367.89
2018-10-01T21:03:15.132Z,100367.89
2018-10-01T21:05:43.694Z,100362.76
2018-10-01T21:08:12.334Z,100364.66
2018-10-01T21:10:41.046Z,100369.94
2018-10-01T21:13:10.458Z,100370.94
2018-10-01T21:15:39.546Z,100319.92
2018-10-01T21:18:08.047Z,100368.42
2018-10-01T21:20:36.882Z,100371.97
2018-10-01T21:23:05.489Z,100369.34
2018-10-01T21:25:34.139Z,100372.07
2018-10-01T21:28:03.578Z,100318.41
2018-10-01T21:30:32.135Z,100375.61
2018-10-01T21:33:00.830Z,100366.23
2018-10-01T21:35:29.366Z,100358.53
2018-10-01T21:37:58.293Z,100369.67
2018-10-01T21:40:26.806Z,100367.05
2018-10-01T21:42:55.764Z,100366.55
2018-10-01T21:45:24.299Z,100362.69
2018-10-01T21:47:52.830Z,100357.55
2018-10-01T21:50:21.386Z,100360.23
2018-10-01T21:52:50.029Z,100356.35
2018-10-01T21:55:18.812Z,100352.48
2018-10-01T21:57:47.806Z,100349.92
2018-10-01T22:00:16.593Z,100336.89
2018-10-01T22:02:45.750Z,100337.81
2018-10-01T22:05:14.748Z,100275.33
2018-10-01T22:07:45.073Z,100334.66
2018-10-01T22:10:14.062Z,100331.16
2018-10-01T22:12:42.607Z,100320.59
2018-10-01T22:15:11.310Z,100316.52
2018-10-01T22:17:40.187Z,100310.29
2018-10-01T22:20:08.735Z,100311.06
2018-10-01T22:22:37.402Z,100304.31
2018-10-01T22:25:06.005Z,100300.38
2018-10-01T22:27:35.453Z,100296.98
2018-10-01T22:30:04.130Z,100296.56
2018-10-01T22:32:32.802Z,100294.37
2018-10-01T22:35:01.287Z,100288.33
2018-10-01T22:37:30.786Z,100292.42
2018-10-01T22:39:59.506Z,100282.50
2018-10-01T22:42:28.013Z,100292.97
2018-10-01T22:44:56.741Z,100219.22
2018-10-01T22:47:25.238Z,100296.12
2018-10-01T22:49:54.050Z,100251.53
2018-10-01T22:52:22.689Z,100292.41
2018-10-01T22:54:51.295Z,100292.02
2018-10-01T22:57:19.886Z,100291.60
2018-10-01T22:59:48.534Z,100290.45
2018-10-01T23:02:17.018Z,100290.82
2018-10-01T23:04:45.554Z,100283.42
2018-10-01T23:07:14.285Z,100288.59
2018-10-01T23:09:42.956Z,100296.27
2018-10-01T23:12:11.694Z,100297.16
2018-10-01T23:14:40.254Z,100296.38
2018-10-01T23:17:08.887Z,100300.69
2018-10-01T23:19:37.416Z,100294.70
2018-10-01T23:22:05.927Z,100299.09
2018-10-01T23:24:34.674Z,100290.66
2018-10-01T23:27:03.154Z,100297.19
2018-10-01T23:29:31.973Z,100247.56
2018-10-01T23:32:00.543Z,100283.86
2018-10-01T23:34:29.251Z,100298.11
2018-10-01T23:36:57.932Z,100274.20
2018-10-01T23:39:26.494Z,100282.66
2018-10-01T23:41:55.054Z,100286.53
2018-10-01T23:44:23.687Z,100286.05
2018-10-01T23:46:52.594Z,100282.13
2018-10-01T23:49:21.163Z,100282.66
2018-10-01T23:51:49.974Z,100273.90
2018-10-01T23:54:18.515Z,100278.16
2018-10-01T23:56:47.095Z,100281.11
2018-10-01T23:59:15.726Z,100273.69
